Time;durP1;ratioP1;P1;durP2;ratioP2;P2;SDS_P1;SDS_P2;PMS_P1;PMS_P2;Temp;Humidity;BMP_temperature;BMP_pressure;BME280_temperature;BME280_humidity;BME280_pressure;Samples;Min_cycle;Max_cycle;Signal;HPM_P1;HPM_P2
2021/05/15 00:01:22;;;;;;;2.75;2.38;;;;;;;;;;10468581;28;20088;-85
2021/05/15 00:06:52;;;;;;;4.20;2.50;;;;;;;;;;10458663;28;20025;-85
2021/05/15 00:11:57;;;;;;;3.22;2.22;;;;;;;;;;10476140;28;20024;-85
2021/05/15 00:17:33;;;;;;;2.42;2.10;;;;;;;;;;10520580;22;20051;-85
2021/05/15 00:23:00;;;;;;;2.00;1.80;;;;;;;;;;10463776;28;20029;-85
2021/05/15 00:28:17;;;;;;;3.53;2.13;;;;;;;;;;10474939;28;20031;-84
2021/05/15 00:33:18;;;;;;;3.47;2.45;;;;;;;;;;10457820;28;20053;-85
2021/05/15 00:38:22;;;;;;;2.30;2.00;;;;;;;;;;10455903;28;20017;-84
2021/05/15 00:43:26;;;;;;;2.50;1.92;;;;;;;;;;10458740;28;20044;-85
2021/05/15 00:48:28;;;;;;;2.88;2.10;;;;;;;;;;10460155;28;20025;-85
2021/05/15 00:53:32;;;;;;;2.55;2.05;;;;;;;;;;10457228;28;20439;-85
2021/05/15 03:38:41;;;;;;;2.58;2.38;;;;;;;;;;10469227;28;20061;-85
2021/05/15 04:12:48;;;;;;;3.92;3.60;;;;;;;;;;10467279;28;20033;-86
2021/05/15 04:24:11;;;;;;;4.15;3.75;;;;;;;;;;10460723;28;20442;-87
2021/05/15 06:55:23;;;;;;;3.58;3.22;;;;;;;;;;10463279;28;20041;-85
2021/05/15 07:00:44;;;;;;;2.67;2.40;;;;;;;;;;10450301;22;20072;-84
2021/05/15 07:05:45;;;;;;;1.40;1.30;;;;;;;;;;10407782;28;20465;-86
2021/05/15 07:10:46;;;;;;;2.80;1.70;;;;;;;;;;10414289;28;20052;-86
2021/05/15 07:15:47;;;;;;;2.15;1.67;;;;;;;;;;10432359;28;20373;-83
2021/05/15 07:20:48;;;;;;;2.47;2.20;;;;;;;;;;10413915;28;20060;-84
2021/05/15 07:25:49;;;;;;;4.30;2.90;;;;;;;;;;10414265;28;20048;-83
2021/05/15 07:30:50;;;;;;;3.13;2.40;;;;;;;;;;10456439;28;20009;-82
2021/05/15 07:35:51;;;;;;;3.72;3.10;;;;;;;;;;10448227;28;20029;-81
2021/05/15 07:40:53;;;;;;;3.70;3.05;;;;;;;;;;10445957;28;20025;-82
2021/05/15 07:45:54;;;;;;;4.28;2.58;;;;;;;;;;10430689;28;20033;-84
2021/05/15 07:51:01;;;;;;;5.57;3.25;;;;;;;;;;10415705;28;20467;-83
2021/05/15 07:56:03;;;;;;;3.85;3.15;;;;;;;;;;10456872;28;20021;-82
2021/05/15 08:01:04;;;;;;;5.53;3.75;;;;;;;;;;10459528;28;20033;-82
2021/05/15 08:06:05;;;;;;;4.20;3.80;;;;;;;;;;10425170;28;20033;-84
2021/05/15 08:11:06;;;;;;;5.43;3.90;;;;;;;;;;10415692;28;20040;-83
2021/05/15 08:16:07;;;;;;;4.90;4.22;;;;;;;;;;10418024;28;20466;-83
2021/05/15 08:21:08;;;;;;;7.10;3.63;;;;;;;;;;10414395;28;20013;-82
2021/05/15 08:26:10;;;;;;;5.03;3.88;;;;;;;;;;10415285;28;20040;-83
2021/05/15 08:31:11;;;;;;;4.95;4.45;;;;;;;;;;10413587;28;20368;-83
2021/05/15 08:36:12;;;;;;;5.90;3.72;;;;;;;;;;10429788;28;20108;-84
2021/05/15 08:41:13;;;;;;;3.85;3.42;;;;;;;;;;10411157;28;20022;-82
2021/05/15 08:46:14;;;;;;;6.35;3.92;;;;;;;;;;10411630;28;20045;-82
2021/05/15 08:51:15;;;;;;;6.32;4.05;;;;;;;;;;10412928;28;20022;-84
2021/05/15 08:56:17;;;;;;;6.20;3.88;;;;;;;;;;10430144;28;20029;-84
2021/05/15 09:01:18;;;;;;;8.90;4.00;;;;;;;;;;10431909;28;20068;-83
2021/05/15 09:06:20;;;;;;;7.75;4.35;;;;;;;;;;10428345;28;20040;-84
2021/05/15 09:11:21;;;;;;;8.45;4.03;;;;;;;;;;10412559;28;20028;-84
2021/05/15 09:16:22;;;;;;;7.13;4.18;;;;;;;;;;10409836;28;20026;-82
2021/05/15 09:21:25;;;;;;;10.60;4.00;;;;;;;;;;10426732;28;20063;-82
2021/05/15 09:26:27;;;;;;;5.80;3.63;;;;;;;;;;10408973;28;20029;-82
2021/05/15 09:31:32;;;;;;;5.55;3.38;;;;;;;;;;10409266;28;20040;-84
2021/05/15 09:36:33;;;;;;;3.75;3.00;;;;;;;;;;10410616;28;20423;-82
2021/05/15 09:41:46;;;;;;;6.72;3.80;;;;;;;;;;10404698;28;20055;-82
2021/05/15 09:46:48;;;;;;;5.70;4.05;;;;;;;;;;10422924;28;20084;-81
2021/05/15 09:51:51;;;;;;;5.90;4.57;;;;;;;;;;10422546;28;20033;-82
2021/05/15 09:56:58;;;;;;;7.50;4.97;;;;;;;;;;10406374;28;20029;-82
2021/05/15 10:02:00;;;;;;;8.05;5.88;;;;;;;;;;10423881;28;20064;-82
2021/05/15 10:07:01;;;;;;;6.35;5.70;;;;;;;;;;10406411;28;20029;-81
2021/05/15 10:12:04;;;;;;;7.40;5.68;;;;;;;;;;10422417;28;20438;-82
2021/05/15 10:17:05;;;;;;;6.10;5.50;;;;;;;;;;10424496;28;20025;-82
2021/05/15 10:22:06;;;;;;;9.43;8.52;;;;;;;;;;10406895;28;20029;-83
2021/05/15 10:27:11;;;;;;;6.13;4.93;;;;;;;;;;10406642;28;20021;-83
2021/05/15 10:32:15;;;;;;;5.78;5.15;;;;;;;;;;10408872;28;20377;-83
2021/05/15 10:37:20;;;;;;;4.72;4.20;;;;;;;;;;10410900;28;20021;-84
2021/05/15 10:42:31;;;;;;;5.72;4.20;;;;;;;;;;10412799;28;20438;-84
2021/05/15 10:47:42;;;;;;;4.82;3.95;;;;;;;;;;10414460;28;20093;-84
2021/05/15 10:52:47;;;;;;;3.95;3.33;;;;;;;;;;10416469;28;20101;-84
2021/05/15 10:57:48;;;;;;;4.60;3.20;;;;;;;;;;10435835;28;20033;-84
2021/05/15 11:03:00;;;;;;;4.57;3.10;;;;;;;;;;10410407;28;20036;-85
2021/05/15 11:08:01;;;;;;;3.35;3.00;;;;;;;;;;10409728;28;20049;-85
2021/05/15 11:13:13;;;;;;;3.10;2.80;;;;;;;;;;10410152;28;20487;-84
2021/05/15 11:18:27;;;;;;;3.40;3.10;;;;;;;;;;10419347;28;20430;-85
2021/05/15 11:23:37;;;;;;;3.92;2.75;;;;;;;;;;10412668;28;20026;-85
2021/05/15 11:28:37;;;;;;;4.57;2.60;;;;;;;;;;10427826;28;20018;-85
2021/05/15 11:33:38;;;;;;;3.67;2.40;;;;;;;;;;10409693;28;20473;-83
2021/05/15 11:38:41;;;;;;;3.08;2.78;;;;;;;;;;10413142;28;20021;-85
2021/05/15 11:43:42;;;;;;;3.05;2.75;;;;;;;;;;10409651;28;20040;-84
2021/05/15 11:48:43;;;;;;;3.53;2.10;;;;;;;;;;10408056;28;20064;-84
2021/05/15 11:53:48;;;;;;;3.75;1.13;;;;;;;;;;10409301;28;20120;-83
2021/05/15 11:58:54;;;;;;;1.98;1.00;;;;;;;;;;10422052;28;20022;-83
2021/05/15 12:04:16;;;;;;;1.90;1.25;;;;;;;;;;10407697;28;20041;-83
2021/05/15 12:09:18;;;;;;;2.38;1.20;;;;;;;;;;10428906;28;20101;-83
2021/05/15 12:14:19;;;;;;;3.97;1.20;;;;;;;;;;10427900;28;20034;-83
2021/05/15 12:19:22;;;;;;;1.33;1.10;;;;;;;;;;10411312;28;20065;-83
2021/05/15 12:24:23;;;;;;;1.15;0.90;;;;;;;;;;10412061;28;20055;-83
2021/05/15 12:51:29;;;;;;;2.00;1.20;;;;;;;;;;10379168;28;20137;-86
2021/05/15 12:57:00;;;;;;;2.15;1.38;;;;;;;;;;10378821;28;20042;-87
2021/05/15 13:02:26;;;;;;;2.17;1.20;;;;;;;;;;10247699;29;20114;-86
2021/05/15 13:07:34;;;;;;;1.75;1.25;;;;;;;;;;10376914;28;20049;-87
2021/05/15 13:18:28;;;;;;;2.08;1.70;;;;;;;;;;10383517;28;20026;-87
2021/05/15 13:24:11;;;;;;;2.25;1.80;;;;;;;;;;10398306;28;20038;-87
2021/05/15 13:29:52;;;;;;;2.67;1.63;;;;;;;;;;10248526;29;20035;-86
2021/05/15 13:35:32;;;;;;;3.33;1.90;;;;;;;;;;10291910;28;20511;-87
2021/05/15 13:46:12;;;;;;;2.45;1.83;;;;;;;;;;10296397;28;20015;-85
2021/05/15 13:51:41;;;;;;;3.72;2.55;;;;;;;;;;10279829;28;20066;-87
2021/05/15 13:57:08;;;;;;;2.10;1.48;;;;;;;;;;10188176;29;20024;-86
2021/05/15 14:07:55;;;;;;;2.85;1.88;;;;;;;;;;10382184;28;20042;-86
2021/05/15 14:13:06;;;;;;;2.45;1.60;;;;;;;;;;10320574;28;20047;-86
2021/05/15 14:18:11;;;;;;;2.17;1.38;;;;;;;;;;10361761;28;20550;-87
2021/05/15 14:23:13;;;;;;;1.85;1.38;;;;;;;;;;10379103;28;20399;-86
2021/05/15 14:28:24;;;;;;;1.60;1.05;;;;;;;;;;10379768;28;20404;-87
2021/05/15 14:33:28;;;;;;;14.88;12.68;;;;;;;;;;10380427;28;20038;-87
2021/05/15 14:44:08;;;;;;;3.58;1.45;;;;;;;;;;10380419;28;20030;-86
2021/05/15 14:49:10;;;;;;;3.08;1.30;;;;;;;;;;10379657;28;20116;-86
2021/05/15 14:54:14;;;;;;;4.80;1.55;;;;;;;;;;10385970;28;20096;-86
2021/05/15 14:59:15;;;;;;;3.70;1.30;;;;;;;;;;10380324;28;20053;-86
2021/05/15 15:04:16;;;;;;;4.75;2.33;;;;;;;;;;10379785;28;20450;-86
2021/05/15 15:09:18;;;;;;;3.17;1.33;;;;;;;;;;10379726;28;20188;-86
2021/05/15 15:14:21;;;;;;;1.70;0.93;;;;;;;;;;10376806;28;20057;-86
2021/05/15 15:19:24;;;;;;;3.80;1.17;;;;;;;;;;10382172;28;20041;-87
2021/05/15 15:24:26;;;;;;;2.63;1.90;;;;;;;;;;10388200;28;20038;-86
2021/05/15 15:29:27;;;;;;;4.38;2.92;;;;;;;;;;10399005;28;20056;-86
2021/05/15 15:34:28;;;;;;;2.72;1.33;;;;;;;;;;10383141;28;20077;-87
2021/05/15 15:39:31;;;;;;;5.07;1.38;;;;;;;;;;10382429;28;20400;-86
2021/05/15 15:44:33;;;;;;;2.38;1.25;;;;;;;;;;10382223;28;20080;-87
2021/05/15 15:49:34;;;;;;;3.17;1.13;;;;;;;;;;10382200;28;20046;-86
2021/05/15 15:54:35;;;;;;;2.88;1.38;;;;;;;;;;10381519;28;20403;-87
2021/05/15 15:59:36;;;;;;;2.30;1.33;;;;;;;;;;10381275;28;20034;-87
2021/05/15 16:04:37;;;;;;;3.15;2.03;;;;;;;;;;10381822;28;20041;-86
2021/05/15 16:09:39;;;;;;;1.48;1.20;;;;;;;;;;10381830;28;20189;-86
2021/05/15 16:14:40;;;;;;;3.78;1.80;;;;;;;;;;10381107;28;20060;-87
2021/05/15 16:19:41;;;;;;;3.15;1.40;;;;;;;;;;10380669;28;20034;-87
2021/05/15 16:24:42;;;;;;;1.90;1.40;;;;;;;;;;10381237;28;20045;-87
2021/05/15 16:29:46;;;;;;;2.55;1.50;;;;;;;;;;10380435;28;20042;-86
2021/05/15 16:34:47;;;;;;;3.13;1.38;;;;;;;;;;10381906;28;20096;-86
2021/05/15 16:39:48;;;;;;;1.80;1.50;;;;;;;;;;10380881;28;20184;-87
2021/05/15 16:44:49;;;;;;;1.80;1.23;;;;;;;;;;10379438;28;20072;-86
2021/05/15 16:49:50;;;;;;;2.40;1.20;;;;;;;;;;10380542;28;20068;-87
2021/05/15 16:54:51;;;;;;;2.33;1.60;;;;;;;;;;10380563;28;20041;-86
2021/05/15 16:59:52;;;;;;;2.05;1.30;;;;;;;;;;10380936;28;20030;-86
2021/05/15 17:04:53;;;;;;;2.90;1.58;;;;;;;;;;10380261;28;20045;-87
2021/05/15 17:09:54;;;;;;;3.13;1.40;;;;;;;;;;10380201;28;20502;-86
2021/05/15 17:14:55;;;;;;;2.00;1.40;;;;;;;;;;10381423;28;20389;-87
2021/05/15 17:19:56;;;;;;;3.00;1.90;;;;;;;;;;10385299;28;20034;-86
2021/05/15 17:25:00;;;;;;;1.80;1.20;;;;;;;;;;10398408;28;20037;-86
2021/05/15 17:30:01;;;;;;;3.58;2.08;;;;;;;;;;10392158;28;20041;-86
2021/05/15 17:35:02;;;;;;;2.83;1.90;;;;;;;;;;10397067;28;20030;-86
2021/05/15 17:40:03;;;;;;;2.08;1.60;;;;;;;;;;10386532;28;20069;-86
2021/05/15 17:45:05;;;;;;;2.38;1.50;;;;;;;;;;10386187;28;20511;-87
2021/05/15 17:50:06;;;;;;;1.98;1.25;;;;;;;;;;10383329;28;20041;-87
2021/05/15 17:55:11;;;;;;;3.40;1.50;;;;;;;;;;10379904;28;20041;-86
2021/05/15 18:00:12;;;;;;;2.17;1.40;;;;;;;;;;10380964;28;20026;-87
2021/05/15 18:05:13;;;;;;;2.42;1.42;;;;;;;;;;10384501;28;20037;-86
2021/05/15 18:10:14;;;;;;;1.63;1.25;;;;;;;;;;10381756;28;20373;-86
2021/05/15 18:15:15;;;;;;;1.85;1.40;;;;;;;;;;10376235;28;20427;-86
2021/05/15 18:20:16;;;;;;;1.98;1.30;;;;;;;;;;10377591;28;20062;-86
2021/05/15 18:25:17;;;;;;;3.33;1.83;;;;;;;;;;10376371;28;20117;-86
2021/05/15 18:30:18;;;;;;;5.20;3.15;;;;;;;;;;10377709;28;20867;-86
2021/05/15 18:35:20;;;;;;;4.75;3.20;;;;;;;;;;10378892;28;20044;-86
2021/05/15 18:40:21;;;;;;;2.38;1.90;;;;;;;;;;10379665;28;20539;-86
2021/05/15 18:45:22;;;;;;;2.55;1.52;;;;;;;;;;10376665;28;20106;-86
2021/05/15 18:50:23;;;;;;;3.28;1.50;;;;;;;;;;10375967;28;20050;-86
2021/05/15 18:55:24;;;;;;;3.67;1.50;;;;;;;;;;10366503;28;20113;-86
2021/05/15 19:00:26;;;;;;;3.05;1.73;;;;;;;;;;10365861;28;20030;-86
2021/05/15 19:05:27;;;;;;;3.72;1.70;;;;;;;;;;10365940;28;20034;-86
2021/05/15 19:10:28;;;;;;;2.33;1.77;;;;;;;;;;10366534;28;20519;-86
2021/05/15 19:15:29;;;;;;;3.85;2.53;;;;;;;;;;10366052;28;20096;-87
2021/05/15 19:20:30;;;;;;;1.90;1.60;;;;;;;;;;10366977;28;20053;-87
2021/05/15 19:25:31;;;;;;;2.80;1.65;;;;;;;;;;10366026;28;20042;-87
2021/05/15 19:30:32;;;;;;;3.53;2.80;;;;;;;;;;10365537;28;20042;-86
2021/05/15 19:35:33;;;;;;;3.08;1.27;;;;;;;;;;10375212;28;20033;-86
2021/05/15 19:40:34;;;;;;;1.83;1.40;;;;;;;;;;10384465;28;20435;-86
2021/05/15 19:45:36;;;;;;;2.50;1.50;;;;;;;;;;10365549;28;20503;-87
2021/05/15 19:50:42;;;;;;;3.10;1.88;;;;;;;;;;10365152;28;20404;-86
2021/05/15 19:55:43;;;;;;;2.17;1.75;;;;;;;;;;10364251;28;20041;-87
2021/05/15 20:00:45;;;;;;;3.13;1.65;;;;;;;;;;10365011;28;20034;-86
2021/05/15 20:05:46;;;;;;;2.67;1.27;;;;;;;;;;10363472;28;20488;-87
2021/05/15 20:10:47;;;;;;;4.72;3.20;;;;;;;;;;10363964;28;20038;-87
2021/05/15 20:15:48;;;;;;;2.63;1.30;;;;;;;;;;10364962;28;20113;-87
2021/05/15 20:20:49;;;;;;;1.83;1.05;;;;;;;;;;10363840;28;20500;-87
2021/05/15 20:25:56;;;;;;;1.73;1.30;;;;;;;;;;10363944;28;20129;-87
2021/05/15 20:30:58;;;;;;;2.08;1.00;;;;;;;;;;10364718;28;20492;-86
2021/05/15 20:35:59;;;;;;;2.08;1.20;;;;;;;;;;10364898;28;20495;-86
2021/05/15 20:41:00;;;;;;;1.80;1.15;;;;;;;;;;10364515;28;20068;-87
2021/05/15 20:46:01;;;;;;;2.10;1.17;;;;;;;;;;10363319;28;20057;-86
2021/05/15 20:51:03;;;;;;;2.13;1.10;;;;;;;;;;10363325;28;20049;-87
2021/05/15 20:56:06;;;;;;;2.40;1.30;;;;;;;;;;10361560;28;20038;-87
2021/05/15 21:01:07;;;;;;;0.93;0.80;;;;;;;;;;10362183;28;20499;-87
2021/05/15 21:06:08;;;;;;;1.90;1.00;;;;;;;;;;10362512;28;20057;-87
2021/05/15 21:11:09;;;;;;;1.70;1.13;;;;;;;;;;10362368;28;20045;-87
2021/05/15 21:16:10;;;;;;;1.23;1.10;;;;;;;;;;10362772;28;20408;-87
2021/05/15 21:21:11;;;;;;;1.08;0.80;;;;;;;;;;10363195;28;20037;-87
2021/05/15 21:26:12;;;;;;;2.28;1.27;;;;;;;;;;10367430;28;20064;-87
2021/05/15 21:31:16;;;;;;;1.65;1.15;;;;;;;;;;10365881;28;20045;-87
2021/05/15 21:36:17;;;;;;;2.30;1.30;;;;;;;;;;10360920;28;20408;-86
2021/05/15 21:41:18;;;;;;;1.75;1.30;;;;;;;;;;10385176;28;20089;-86
2021/05/15 21:46:19;;;;;;;2.95;1.30;;;;;;;;;;10367490;28;20426;-86
2021/05/15 21:51:23;;;;;;;2.08;1.30;;;;;;;;;;10360933;28;20041;-85
2021/05/15 21:56:24;;;;;;;2.05;1.42;;;;;;;;;;10361447;28;20063;-86
2021/05/15 22:01:25;;;;;;;1.75;1.20;;;;;;;;;;10359978;28;20049;-87
2021/05/15 22:06:29;;;;;;;3.00;1.70;;;;;;;;;;10360954;28;20034;-87
2021/05/15 22:11:30;;;;;;;3.00;1.90;;;;;;;;;;10361545;28;20048;-87
2021/05/15 22:16:31;;;;;;;2.90;1.60;;;;;;;;;;10362726;28;20472;-87
2021/05/15 22:21:33;;;;;;;1.65;1.17;;;;;;;;;;10362990;28;20061;-87
2021/05/15 22:26:35;;;;;;;3.03;1.67;;;;;;;;;;10366952;28;20117;-87
2021/05/15 22:31:38;;;;;;;2.80;1.52;;;;;;;;;;10371080;28;20038;-87
2021/05/15 22:36:39;;;;;;;2.42;1.60;;;;;;;;;;10376550;28;20048;-87
2021/05/15 22:41:40;;;;;;;2.08;1.33;;;;;;;;;;10371236;28;20026;-87
2021/05/15 22:46:41;;;;;;;2.85;1.65;;;;;;;;;;10370173;28;20137;-86
2021/05/15 22:51:42;;;;;;;3.80;1.52;;;;;;;;;;10394491;28;20084;-87
2021/05/15 22:56:49;;;;;;;3.20;1.75;;;;;;;;;;10373611;28;20073;-87
2021/05/15 23:01:54;;;;;;;2.35;1.27;;;;;;;;;;10373503;28;20434;-86
2021/05/15 23:06:56;;;;;;;2.63;1.35;;;;;;;;;;10368996;28;20112;-86
2021/05/15 23:11:57;;;;;;;2.90;1.67;;;;;;;;;;10368010;28;20080;-86
2021/05/15 23:16:58;;;;;;;2.45;1.30;;;;;;;;;;10368242;28;20037;-86
2021/05/15 23:21:59;;;;;;;5.25;1.58;;;;;;;;;;10367203;28;20121;-86
2021/05/15 23:27:01;;;;;;;4.30;1.65;;;;;;;;;;10374373;28;20030;-85
2021/05/15 23:32:03;;;;;;;2.95;1.50;;;;;;;;;;10373066;28;20034;-86
2021/05/15 23:37:04;;;;;;;4.50;1.60;;;;;;;;;;10373231;28;20034;-85
2021/05/15 23:42:08;;;;;;;3.20;1.60;;;;;;;;;;10382023;28;20042;-85
2021/05/15 23:47:09;;;;;;;3.47;1.67;;;;;;;;;;10386526;28;20492;-86
2021/05/15 23:52:10;;;;;;;1.92;1.20;;;;;;;;;;10372001;28;20034;-86
2021/05/15 23:57:11;;;;;;;4.35;1.60;;;;;;;;;;10371797;28;20045;-86
